This is the latest recevied weather packets stored in our database for station/object N0THY. If no packets are shown the sender has not sent any weather packets the latest 10 day(s).
| Time | Temp. | Humidity | Pressure | Rain* | Wind** | Luminosity | Snow |
|---|---|---|---|---|---|---|---|
| 1777875797 | 8.89° C | 44% | 1013 hPa | 0 mm | - | - | - |
| 1777874895 | 8.89° C | 44% | 1013 hPa | 0 mm | - | - | - |
| 1777873992 | 8.89° C | 44% | 1013.1 hPa | 0 mm | - | - | - |
| 1777873089 | 8.89° C | 43% | 1013.1 hPa | 0 mm | - | - | - |
| 1777872186 | 9.44° C | 43% | 1013.1 hPa | 0 mm | - | - | - |
| 1777871283 | 9.44° C | 41% | 1013.1 hPa | 0 mm | - | - | - |
| 1777870380 | 10° C | 40% | 1013 hPa | 0 mm | - | - | - |
| 1777869477 | 10.56° C | 38% | 1013.1 hPa | 0 mm | - | - | - |
| 1777868574 | 11.11° C | 37% | 1013 hPa | 0 mm | - | - | - |
| 1777867671 | 11.67° C | 36% | 1013 hPa | 0 mm | - | - | - |
| 1777866768 | 12.22° C | 34% | 1012.9 hPa | 0 mm | - | - | - |
| 1777865865 | 13.33° C | 32% | 1012.7 hPa | 0 mm | - | - | - |
| 1777864059 | 14.44° C | 29% | 1012.4 hPa | 0 mm | - | - | - |
| 1777863156 | 15° C | 28% | 1012.2 hPa | 0 mm | - | - | - |
| 1777862253 | 16.11° C | 25% | 1012.2 hPa | 0 mm | - | - | - |
| 1777861350 | 17.22° C | 22% | 1012 hPa | 0 mm | - | - | - |
| 1777860448 | 17.78° C | 21% | 1011.9 hPa | 0 mm | - | - | - |
| 1777859545 | 17.78° C | 22% | 1011.9 hPa | 0 mm | - | - | - |
| 1777858642 | 18.89° C | 19% | 1011.9 hPa | 0 mm | - | - | - |
| 1777857739 | 20° C | 16% | 1011.9 hPa | 0 mm | - | - | - |
| 1777856836 | 21.67° C | 12% | 1012 hPa | 0 mm | - | - | - |
| 1777855933 | 22.22° C | 10% | 1011.9 hPa | 0 mm | - | - | - |
| 1777855030 | 22.22° C | 9% | 1012 hPa | 0 mm | - | - | - |
| 1777854127 | 22.22° C | 10% | 1012 hPa | 0 mm | - | - | - |
| 1777853335 | 22.22° C | 9% | 1012.1 hPa | 0 mm | - | - | - |
* Rain since midnight (hover to see other rain measurements)
** Current wind speed in m/s (hover to see current wind gust speed)